Time;durP1;ratioP1;P1;durP2;ratioP2;P2;SDS_P1;SDS_P2;PMS_P1;PMS_P2;Temp;Humidity;BMP_temperature;BMP_pressure;BME280_temperature;BME280_humidity;BME280_pressure;Samples;Min_cycle;Max_cycle;Signal;HPM_P1;HPM_P2
2022/04/18 00:02:21;;;;;;;22.95;14.95;;;;;;;2.44;58.87;101069.93;3470420;79;21014;-82
2022/04/18 00:07:13;;;;;;;22.50;14.15;;;;;;;2.37;58.86;101066.54;3466867;78;21175;-82
2022/04/18 00:12:05;;;;;;;25.65;13.58;;;;;;;2.28;58.85;101062.65;3468742;79;20932;-82
2022/04/18 00:16:57;;;;;;;22.20;13.30;;;;;;;2.24;58.81;101063.28;3531177;78;21505;-82
2022/04/18 00:21:49;;;;;;;23.30;12.85;;;;;;;2.13;58.41;101069.50;3545747;78;21450;-83
2022/04/18 00:26:42;;;;;;;25.77;13.68;;;;;;;1.97;58.92;101059.14;3486123;79;20967;-82
2022/04/18 00:31:33;;;;;;;22.50;11.73;;;;;;;1.94;58.75;101057.30;3522015;78;22151;-82
2022/04/18 00:36:25;;;;;;;23.90;12.15;;;;;;;1.85;58.79;101053.80;3502695;78;20979;-83
2022/04/18 00:41:16;;;;;;;20.75;11.80;;;;;;;1.85;59.27;101044.83;3489742;79;20968;-82
2022/04/18 00:46:08;;;;;;;18.37;11.60;;;;;;;1.94;59.37;101048.73;3525726;79;21509;-82
2022/04/18 00:50:59;;;;;;;20.23;11.20;;;;;;;2.08;58.86;101051.69;3494107;79;21501;-82
2022/04/18 00:55:50;;;;;;;17.55;11.05;;;;;;;2.16;58.48;101041.44;3504623;79;21193;-82
2022/04/18 01:00:41;;;;;;;19.82;11.73;;;;;;;2.26;58.45;101038.59;3542787;79;20966;-82
2022/04/18 01:05:33;;;;;;;21.45;12.07;;;;;;;2.25;58.46;101036.84;3453652;81;20899;-82
2022/04/18 01:10:24;;;;;;;19.35;11.33;;;;;;;2.26;58.67;101036.02;3427854;82;21509;-83
2022/04/18 01:15:16;;;;;;;21.07;11.50;;;;;;;2.25;58.90;101025.67;3402629;81;20928;-82
2022/04/18 01:20:23;;;;;;;17.55;11.22;;;;;;;2.25;59.07;101024.02;3394804;82;21023;-82
2022/04/18 01:30:37;;;;;;;17.40;10.10;;;;;;;2.28;59.13;101028.01;3297169;84;21044;-83
2022/04/18 01:35:29;;;;;;;16.20;9.43;;;;;;;2.32;59.16;101024.34;3269132;85;21026;-83
2022/04/18 01:40:20;;;;;;;13.72;9.15;;;;;;;2.34;59.06;101020.17;3295835;84;21509;-83
2022/04/18 01:45:11;;;;;;;15.03;8.48;;;;;;;2.33;59.31;101009.44;3282791;84;21165;-82
2022/04/18 01:50:04;;;;;;;14.40;8.28;;;;;;;2.35;59.10;101006.55;3322203;84;20999;-82
2022/04/18 01:54:56;;;;;;;16.70;9.13;;;;;;;2.33;59.04;100996.20;3282791;84;20983;-82
2022/04/18 01:59:48;;;;;;;11.25;8.08;;;;;;;2.28;58.89;100995.06;3307075;80;21135;-83
2022/04/18 02:04:39;;;;;;;14.43;9.80;;;;;;;2.23;58.90;100992.23;3509136;79;20956;-83
2022/04/18 02:09:31;;;;;;;16.62;9.68;;;;;;;2.19;58.94;100984.30;3513143;79;21142;-83
2022/04/18 02:14:23;;;;;;;15.25;9.28;;;;;;;2.11;59.03;100981.32;3536749;79;21438;-82
2022/04/18 02:19:14;;;;;;;15.50;8.53;;;;;;;2.04;59.01;100972.77;3507911;79;20959;-82
2022/04/18 02:24:05;;;;;;;12.37;8.58;;;;;;;1.93;58.98;100967.45;3476780;78;21607;-82
2022/04/18 02:28:57;;;;;;;15.38;9.00;;;;;;;1.85;58.98;100969.60;3489809;79;20972;-82
2022/04/18 02:33:48;;;;;;;15.80;8.93;;;;;;;1.76;58.95;100969.96;3526576;79;21461;-82
2022/04/18 02:38:40;;;;;;;14.47;9.18;;;;;;;1.65;59.22;100973.61;3498903;79;20956;-82
2022/04/18 02:43:32;;;;;;;13.43;8.05;;;;;;;1.51;59.16;100977.53;3541518;79;21974;-82
2022/04/18 02:48:25;;;;;;;10.72;7.35;;;;;;;1.41;59.52;100979.06;3465043;79;20901;-82
2022/04/18 02:53:18;;;;;;;15.32;7.97;;;;;;;1.34;59.55;100971.81;3511139;78;21026;-82
2022/04/18 02:58:11;;;;;;;12.28;8.23;;;;;;;1.28;59.63;100967.63;3498493;79;22051;-82
2022/04/18 03:03:03;;;;;;;13.90;7.50;;;;;;;1.23;59.86;100978.00;3533786;79;21033;-82
2022/04/18 03:07:55;;;;;;;13.25;7.08;;;;;;;1.19;59.81;100969.26;3491101;79;20972;-82
2022/04/18 03:12:47;;;;;;;11.10;6.60;;;;;;;1.10;59.86;100972.16;3531840;79;20927;-82
2022/04/18 03:17:38;;;;;;;11.27;7.40;;;;;;;1.03;60.07;100973.87;3480835;78;20998;-82
2022/04/18 03:22:31;;;;;;;16.42;7.80;;;;;;;0.98;60.11;100967.59;3505229;79;22042;-82
2022/04/18 03:27:25;;;;;;;11.50;6.95;;;;;;;0.93;60.33;100960.93;3514187;79;20927;-82
2022/04/18 03:32:16;;;;;;;12.10;6.67;;;;;;;0.90;60.32;100959.86;3502102;79;20995;-82
2022/04/18 03:42:31;;;;;;;10.35;5.92;;;;;;;0.81;60.31;100959.31;3512637;79;21011;-82
2022/04/18 03:47:28;;;;;;;10.53;6.65;;;;;;;0.78;60.54;100956.56;3501762;79;20952;-82
2022/04/18 03:52:21;;;;;;;9.63;5.67;;;;;;;0.70;60.49;100958.67;3487522;79;20948;-82
2022/04/18 03:57:14;;;;;;;9.13;5.90;;;;;;;0.66;60.65;100959.25;3514851;79;20959;-82
2022/04/18 04:02:08;;;;;;;8.30;5.78;;;;;;;0.62;60.65;100963.30;3495437;78;21516;-82
2022/04/18 04:07:01;;;;;;;11.80;6.17;;;;;;;0.62;60.79;100959.46;3502341;77;20963;-82
2022/04/18 04:11:52;;;;;;;13.03;6.05;;;;;;;0.68;60.78;100963.70;3517082;79;22746;-82
2022/04/18 04:16:44;;;;;;;8.98;6.25;;;;;;;1.02;60.82;100959.31;3443982;82;20978;-82
2022/04/18 04:21:35;;;;;;;9.55;6.72;;;;;;;1.25;60.37;100955.92;3446422;81;20961;-82
2022/04/18 04:26:27;;;;;;;11.22;7.37;;;;;;;1.74;59.95;100956.59;3412602;80;21579;-82
2022/04/18 04:31:18;;;;;;;11.30;6.72;;;;;;;1.51;59.92;100957.03;3500034;79;21293;-82
2022/04/18 04:36:12;;;;;;;12.10;6.80;;;;;;;1.55;59.90;100962.34;3537538;79;21133;-81
2022/04/18 04:41:03;;;;;;;9.98;5.70;;;;;;;1.59;59.74;100966.83;3489521;79;21521;-81
2022/04/18 04:46:07;;;;;;;8.53;5.33;;;;;;;1.68;59.60;100964.78;3527307;79;20997;-81
2022/04/18 04:51:01;;;;;;;8.93;5.30;;;;;;;1.73;59.50;100963.38;3532752;79;21453;-81
2022/04/18 04:55:52;;;;;;;8.75;4.87;;;;;;;1.82;59.14;100969.02;3532159;79;21514;-80
2022/04/18 05:00:43;;;;;;;9.88;5.55;;;;;;;1.92;58.91;100971.70;3487136;79;21838;-81
2022/04/18 05:05:41;;;;;;;7.83;5.08;;;;;;;2.03;58.73;100976.16;3517224;79;20956;-81
2022/04/18 05:10:34;;;;;;;8.25;5.80;;;;;;;2.14;58.45;100979.31;3521990;79;21474;-81
2022/04/18 05:15:27;;;;;;;6.53;5.03;;;;;;;2.25;58.16;100972.70;3473842;79;20963;-81
2022/04/18 05:20:26;;;;;;;8.13;4.37;;;;;;;2.37;57.96;100971.59;3482147;79;20963;-81
2022/04/18 05:25:17;;;;;;;6.00;4.42;;;;;;;2.51;57.82;100969.36;3517869;79;20940;-81
2022/04/18 05:30:10;;;;;;;7.60;4.30;;;;;;;2.63;57.51;100967.45;3519062;78;20980;-81
2022/04/18 05:35:03;;;;;;;7.00;4.15;;;;;;;2.76;57.24;100965.13;3468772;79;20967;-81
2022/04/18 05:39:53;;;;;;;5.92;4.00;;;;;;;2.92;56.93;100963.36;3462525;78;20990;-81
2022/04/18 05:44:45;;;;;;;5.67;3.72;;;;;;;3.07;56.76;100950.41;3491465;79;21074;-81
2022/04/18 05:49:36;;;;;;;5.92;3.80;;;;;;;3.22;56.55;100958.91;3513853;79;21177;-81
2022/04/18 05:54:27;;;;;;;6.08;3.20;;;;;;;3.40;56.09;100959.83;3516399;79;20974;-81
2022/04/18 05:59:20;;;;;;;5.75;3.47;;;;;;;3.59;55.80;100956.86;3538097;79;21461;-81
2022/04/18 06:04:19;;;;;;;5.53;2.85;;;;;;;3.78;55.16;100954.38;3533741;78;20987;-81
2022/04/18 06:09:12;;;;;;;5.62;3.70;;;;;;;3.94;55.00;100953.84;3519662;79;20951;-81
2022/04/18 06:14:03;;;;;;;5.28;3.27;;;;;;;4.24;54.49;100956.06;3451468;79;22512;-82
2022/04/18 06:18:55;;;;;;;3.90;2.50;;;;;;;5.50;52.58;100939.67;3477559;78;21473;-80
2022/04/18 06:23:46;;;;;;;3.50;2.40;;;;;;;5.89;51.13;100943.39;3481320;77;20986;-83
2022/04/18 06:28:48;;;;;;;2.83;1.92;;;;;;;5.91;50.86;100946.91;3545563;79;21248;-82
2022/04/18 06:33:39;;;;;;;2.83;2.58;;;;;;;5.87;50.03;100947.62;3568616;78;20960;-83
2022/04/18 06:38:31;;;;;;;4.17;2.98;;;;;;;6.15;50.05;100948.72;3534411;79;21168;-83
2022/04/18 06:43:24;;;;;;;5.60;2.55;;;;;;;6.16;50.29;100954.36;3529238;79;20971;-83
2022/04/18 06:48:15;;;;;;;4.35;2.75;;;;;;;7.81;48.42;100948.08;3502998;79;20920;-84
2022/04/18 06:53:10;;;;;;;3.58;2.55;;;;;;;9.29;45.94;100935.52;3484600;78;21484;-84
2022/04/18 06:58:21;;;;;;;3.62;2.80;;;;;;;12.67;42.73;100918.01;3342511;83;21502;-83
2022/04/18 07:03:13;;;;;;;2.62;2.42;;;;;;;16.56;39.31;100919.91;3340103;83;21423;-83
2022/04/18 07:08:05;;;;;;;2.98;2.17;;;;;;;17.91;35.90;100916.38;3367866;83;21009;-83
2022/04/18 07:12:57;;;;;;;2.67;1.85;;;;;;;19.43;33.77;100919.23;3335263;83;21043;-83
2022/04/18 07:17:48;;;;;;;2.65;2.25;;;;;;;20.41;31.92;100913.05;3304679;82;20975;-84
2022/04/18 07:22:39;;;;;;;1.92;1.82;;;;;;;20.48;30.98;100901.03;3330876;84;20980;-84
2022/04/18 07:27:31;;;;;;;1.87;1.60;;;;;;;21.66;29.44;100897.44;3362697;79;21149;-84
2022/04/18 07:32:24;;;;;;;2.50;1.45;;;;;;;23.25;26.74;100898.14;3560878;78;21447;-84
2022/04/18 07:37:17;;;;;;;3.20;1.47;;;;;;;24.72;25.41;100886.70;3551658;78;20916;-85
2022/04/18 07:42:09;;;;;;;1.67;1.57;;;;;;;26.22;24.36;100878.63;3509784;79;22276;-85
2022/04/18 07:47:01;;;;;;;2.22;2.02;;;;;;;26.33;23.03;100881.28;3504239;79;21453;-85
2022/04/18 07:51:54;;;;;;;2.65;1.70;;;;;;;26.92;22.68;100878.92;3501440;78;21165;-85
2022/04/18 07:56:47;;;;;;;1.70;1.25;;;;;;;26.45;22.47;100879.34;3502982;79;20980;-85
2022/04/18 08:01:39;;;;;;;1.45;1.32;;;;;;;26.72;20.95;100873.67;3471315;79;21019;-84
2022/04/18 08:06:33;;;;;;;1.30;1.20;;;;;;;26.45;19.90;100882.02;3528610;79;21473;-85
2022/04/18 08:11:32;;;;;;;1.55;1.30;;;;;;;27.07;19.53;100867.10;3501162;79;20955;-86
2022/04/18 08:16:24;;;;;;;1.22;1.10;;;;;;;25.61;19.45;100869.33;3497189;79;21900;-86
2022/04/18 08:21:19;;;;;;;2.62;1.92;;;;;;;21.99;20.25;100881.54;3506698;79;21443;-85
2022/04/18 08:26:10;;;;;;;1.52;1.42;;;;;;;21.35;20.93;100879.25;3527704;79;21088;-85
2022/04/18 08:31:10;;;;;;;1.30;1.20;;;;;;;23.80;19.26;100871.50;3502071;79;21007;-84
2022/04/18 08:36:18;;;;;;;1.10;1.02;;;;;;;23.88;19.07;100866.80;3271308;84;20988;-86
2022/04/18 08:41:12;;;;;;;0.90;0.90;;;;;;;23.49;18.98;100876.53;3258618;85;22240;-85
2022/04/18 08:46:06;;;;;;;1.55;1.15;;;;;;;21.78;19.79;100868.90;3279163;84;33902;-85
2022/04/18 08:56:08;;;;;;;1.50;1.17;;;;;;;20.82;20.32;100853.20;3274955;84;21138;-86
2022/04/18 09:01:02;;;;;;;1.47;1.37;;;;;;;21.36;20.28;100843.98;3278160;85;21081;-86
2022/04/18 09:06:13;;;;;;;1.20;1.10;;;;;;;21.24;20.54;100842.50;3230792;85;21696;-85
2022/04/18 09:11:07;;;;;;;1.37;1.12;;;;;;;19.62;20.99;100838.91;3486276;79;20982;-85
2022/04/18 09:15:59;;;;;;;1.62;1.20;;;;;;;17.47;22.20;100830.91;3507728;78;21516;-85
2022/04/18 09:20:54;;;;;;;1.30;1.20;;;;;;;20.24;21.01;100823.19;3488851;79;21022;-81
2022/04/18 09:25:46;;;;;;;1.57;1.20;;;;;;;21.54;20.85;100811.77;3507663;79;20944;-81
2022/04/18 09:30:38;;;;;;;3.62;1.22;;;;;;;21.98;20.22;100812.31;3501251;77;21209;-82
2022/04/18 09:35:30;;;;;;;1.27;1.17;;;;;;;22.50;19.40;100802.41;3483521;79;20957;-82
2022/04/18 09:40:24;;;;;;;1.82;1.45;;;;;;;22.14;19.31;100789.34;3549759;79;20896;-82
2022/04/18 09:45:18;;;;;;;1.60;1.40;;;;;;;21.88;19.16;100789.20;3498308;77;21053;-82
2022/04/18 09:55:33;;;;;;;1.52;1.20;;;;;;;24.68;17.53;100762.81;3497986;79;21109;-83
2022/04/18 10:00:25;;;;;;;1.27;1.17;;;;;;;26.27;16.63;100749.63;3467365;79;21508;-79
2022/04/18 10:05:16;;;;;;;1.00;1.00;;;;;;;27.49;16.66;100741.73;3478028;77;21499;-79
2022/04/18 10:10:08;;;;;;;1.40;1.30;;;;;;;27.23;15.42;100731.09;3488420;79;20912;-81
2022/04/18 10:14:59;;;;;;;2.47;1.30;;;;;;;27.29;16.00;100712.95;3533402;78;21026;-82
2022/04/18 10:20:21;;;;;;;1.98;1.37;;;;;;;27.68;15.84;100718.44;3470666;77;21030;-82
2022/04/18 10:25:39;;;;;;;1.17;1.07;;;;;;;28.67;15.42;100715.59;3514741;77;21005;-82
2022/04/18 10:30:39;;;;;;;1.92;1.20;;;;;;;28.98;15.47;100711.11;3491989;79;20955;-82
2022/04/18 10:35:30;;;;;;;1.00;1.00;;;;;;;28.64;14.92;100699.75;3513296;79;21430;-81
2022/04/18 10:40:23;;;;;;;0.90;0.90;;;;;;;27.09;15.31;100691.78;3491423;79;21019;-80
2022/04/18 10:45:23;;;;;;;1.25;1.22;;;;;;;26.94;15.46;100682.30;3462704;77;21150;-81
2022/04/18 10:50:18;;;;;;;1.17;1.10;;;;;;;27.14;15.56;100683.91;3537914;78;21063;-81
2022/04/18 10:55:20;;;;;;;1.85;1.42;;;;;;;26.27;15.04;100695.00;3527806;79;21074;-82
2022/04/18 11:00:11;;;;;;;1.75;1.10;;;;;;;25.98;16.22;100677.30;3520706;78;20999;-82
2022/04/18 11:05:03;;;;;;;1.20;1.10;;;;;;;27.43;16.51;100672.66;3540925;78;21002;-83
2022/04/18 11:09:56;;;;;;;1.55;1.37;;;;;;;25.57;16.89;100657.45;3509959;78;21175;-80
2022/04/18 11:14:54;;;;;;;2.42;1.35;;;;;;;22.46;17.47;100675.37;3525411;79;21003;-81
2022/04/18 11:19:46;;;;;;;1.20;1.10;;;;;;;22.07;17.95;100671.73;3463650;79;21010;-81
2022/04/18 11:24:54;;;;;;;1.90;1.37;;;;;;;23.28;18.40;100658.43;3439626;79;20931;-81
2022/04/18 11:29:59;;;;;;;1.25;1.15;;;;;;;22.82;18.10;100659.57;3546403;78;20941;-81
2022/04/18 11:34:55;;;;;;;1.50;1.40;;;;;;;22.91;17.92;100651.76;3503501;77;21296;-80
2022/04/18 11:39:50;;;;;;;1.67;1.20;;;;;;;22.32;17.68;100635.66;3473102;77;20927;-81
2022/04/18 11:44:44;;;;;;;3.22;1.20;;;;;;;21.41;18.54;100627.83;3503369;77;20943;-81
2022/04/18 11:49:38;;;;;;;1.57;1.30;;;;;;;20.77;18.79;100619.50;3546260;77;20963;-81
2022/04/18 11:54:29;;;;;;;1.30;1.20;;;;;;;19.87;19.79;100617.30;3496216;79;21073;-80
2022/04/18 11:59:21;;;;;;;1.15;1.07;;;;;;;19.03;20.00;100608.50;3488067;79;21074;-80
2022/04/18 12:09:23;;;;;;;2.10;1.25;;;;;;;17.53;20.43;100595.56;3464225;78;20979;-80
2022/04/18 12:14:16;;;;;;;1.72;1.17;;;;;;;16.72;20.73;100584.26;3516237;78;21275;-81
2022/04/18 12:19:18;;;;;;;4.25;1.45;;;;;;;16.97;21.66;100573.49;3485525;78;20975;-80
2022/04/18 12:24:08;;;;;;;1.62;1.32;;;;;;;16.97;21.67;100569.55;3498092;79;22546;-81
2022/04/18 12:29:03;;;;;;;1.92;1.30;;;;;;;16.91;21.20;100548.17;3486230;79;20999;-81
2022/04/18 12:33:54;;;;;;;1.27;1.17;;;;;;;17.25;22.99;100541.64;3497548;78;20916;-81
2022/04/18 12:38:48;;;;;;;3.55;1.40;;;;;;;17.56;22.43;100514.47;3493000;79;20943;-81
2022/04/18 12:43:39;;;;;;;1.85;1.75;;;;;;;17.66;22.07;100518.70;3487895;79;20990;-81
2022/04/18 12:48:34;;;;;;;2.37;1.30;;;;;;;17.60;22.01;100506.09;3471371;79;21470;-80
2022/04/18 12:53:53;;;;;;;1.90;1.70;;;;;;;17.21;20.94;100496.61;3535675;79;21022;-80
2022/04/18 12:58:45;;;;;;;2.10;1.35;;;;;;;16.83;21.92;100503.17;3509571;78;21009;-80
2022/04/18 13:03:45;;;;;;;1.65;1.50;;;;;;;16.43;21.75;100496.62;3476827;79;20972;-80
2022/04/18 13:08:39;;;;;;;1.72;1.45;;;;;;;16.36;22.59;100477.48;3532288;78;20971;-80
2022/04/18 13:13:31;;;;;;;2.17;1.50;;;;;;;16.16;22.39;100465.85;3515728;79;21278;-83
2022/04/18 13:18:26;;;;;;;1.90;1.62;;;;;;;16.70;24.32;100449.95;3482263;78;20941;-83
2022/04/18 13:23:18;;;;;;;1.42;1.32;;;;;;;17.17;23.14;100445.87;3511171;79;20963;-81
2022/04/18 13:28:10;;;;;;;1.92;1.37;;;;;;;17.25;22.49;100447.06;3467233;79;20998;-82
2022/04/18 13:33:01;;;;;;;1.80;1.50;;;;;;;17.07;22.44;100428.50;3514989;79;20936;-79
2022/04/18 13:37:52;;;;;;;1.92;1.40;;;;;;;16.90;22.19;100441.84;3485837;78;21006;-81
2022/04/18 13:42:44;;;;;;;1.70;1.60;;;;;;;16.67;22.27;100431.61;3525960;77;21633;-81
2022/04/18 13:47:38;;;;;;;1.80;1.50;;;;;;;16.64;21.67;100424.66;3507358;79;21228;-81
2022/04/18 13:52:29;;;;;;;1.90;1.47;;;;;;;16.57;21.95;100417.74;3508047;79;20924;-81
2022/04/18 13:57:20;;;;;;;2.25;1.40;;;;;;;16.74;22.47;100411.84;3480749;79;21934;-82
2022/04/18 14:02:11;;;;;;;2.07;1.60;;;;;;;16.39;21.65;100419.70;3491196;79;20939;-81
2022/04/18 14:07:04;;;;;;;2.10;1.60;;;;;;;15.38;22.47;100404.50;3522337;77;23628;-81
2022/04/18 14:11:55;;;;;;;2.58;1.70;;;;;;;15.66;22.68;100395.08;3485852;78;20933;-81
2022/04/18 14:21:56;;;;;;;4.37;3.60;;;;;;;15.15;22.75;100382.41;3530340;79;21090;-80
2022/04/18 14:26:47;;;;;;;2.10;1.67;;;;;;;15.85;22.89;100384.02;3471996;78;22063;-80
2022/04/18 14:31:39;;;;;;;17.57;15.78;;;;;;;15.92;22.98;100368.66;3511661;79;21296;-79
2022/04/18 14:36:34;;;;;;;2.42;2.00;;;;;;;15.44;22.84;100361.20;3479828;79;20931;-79
2022/04/18 14:41:24;;;;;;;1.90;1.62;;;;;;;14.92;22.76;100360.75;3546143;77;21015;-79
2022/04/18 14:46:16;;;;;;;2.52;1.98;;;;;;;14.60;23.49;100352.20;3470480;79;20933;-79
2022/04/18 14:51:07;;;;;;;2.37;1.50;;;;;;;14.40;23.98;100361.42;3447955;78;21584;-80
2022/04/18 14:55:58;;;;;;;3.17;2.58;;;;;;;14.19;23.61;100362.81;3531113;79;20975;-79
2022/04/18 15:00:50;;;;;;;3.87;1.45;;;;;;;14.01;23.99;100358.52;3465197;77;20983;-79
2022/04/18 15:05:41;;;;;;;2.08;1.55;;;;;;;13.76;24.04;100343.34;3494237;78;20905;-79
2022/04/18 15:10:32;;;;;;;3.75;1.75;;;;;;;13.55;24.60;100351.63;3507195;79;20998;-79
2022/04/18 15:15:24;;;;;;;2.90;1.45;;;;;;;13.53;24.57;100348.16;3455080;77;22494;-78
2022/04/18 15:20:16;;;;;;;2.00;1.67;;;;;;;13.58;24.70;100344.24;3495233;79;20979;-78
2022/04/18 15:25:08;;;;;;;3.52;2.83;;;;;;;13.60;24.56;100347.27;3507373;79;20983;-76
2022/04/18 15:35:09;;;;;;;2.52;1.50;;;;;;;13.39;24.45;100336.40;3485466;78;21587;-78
2022/04/18 15:40:00;;;;;;;6.65;5.97;;;;;;;13.27;24.78;100344.20;3511761;79;21031;-78
2022/04/18 15:44:58;;;;;;;3.98;2.33;;;;;;;13.12;24.79;100334.64;3482197;78;20975;-78
2022/04/18 15:49:47;;;;;;;1.45;1.22;;;;;;;13.01;25.25;100333.77;3479089;79;21537;-78
2022/04/18 15:54:38;;;;;;;9.00;8.20;;;;;;;12.81;25.89;100333.31;3501562;79;20974;-78
2022/04/18 15:59:30;;;;;;;5.03;4.35;;;;;;;12.67;26.25;100334.58;3438135;78;20966;-77
2022/04/18 16:04:21;;;;;;;4.83;2.75;;;;;;;12.55;26.21;100333.23;3500629;79;21326;-78
2022/04/18 16:09:13;;;;;;;9.43;8.48;;;;;;;12.35;26.87;100339.70;3538140;78;21497;-78
2022/04/18 16:14:04;;;;;;;1.85;1.70;;;;;;;12.15;26.66;100340.92;3488148;79;21411;-78
2022/04/18 16:18:56;;;;;;;3.58;3.27;;;;;;;12.05;26.85;100332.17;3555944;79;21006;-78
2022/04/18 16:23:47;;;;;;;4.17;2.00;;;;;;;11.96;27.10;100329.53;3489766;78;20955;-77
2022/04/18 16:28:38;;;;;;;7.33;4.07;;;;;;;11.86;27.16;100330.30;3556941;78;22059;-78
2022/04/18 16:33:29;;;;;;;4.00;3.22;;;;;;;11.74;27.38;100333.29;3512444;79;22121;-78
2022/04/18 16:38:21;;;;;;;20.37;18.62;;;;;;;11.64;27.59;100325.86;3471493;78;20927;-77
2022/04/18 16:48:22;;;;;;;18.67;16.80;;;;;;;11.54;28.09;100320.59;3495360;79;22190;-77
2022/04/18 16:53:13;;;;;;;9.15;8.03;;;;;;;11.47;28.12;100318.80;3514311;79;21115;-77
2022/04/18 16:58:05;;;;;;;7.45;5.87;;;;;;;11.40;27.92;100320.05;3511094;79;21140;-77
2022/04/18 17:02:56;;;;;;;4.40;3.42;;;;;;;11.31;28.10;100316.08;3462753;78;22114;-77
2022/04/18 17:07:47;;;;;;;8.03;5.87;;;;;;;11.19;28.39;100314.67;3445607;78;21736;-77
2022/04/18 17:12:40;;;;;;;9.10;6.50;;;;;;;11.06;28.38;100315.88;3521800;78;21189;-77
2022/04/18 17:17:31;;;;;;;7.15;5.75;;;;;;;11.03;28.68;100314.97;3468930;79;22941;-77
2022/04/18 17:22:22;;;;;;;6.25;3.75;;;;;;;10.96;28.75;100314.04;3476006;79;22234;-76
2022/04/18 17:27:13;;;;;;;4.20;3.30;;;;;;;10.88;28.75;100319.63;3493938;79;21726;-77
2022/04/18 17:32:06;;;;;;;6.90;3.33;;;;;;;10.80;29.05;100327.77;3524072;79;21182;-77
2022/04/18 17:36:58;;;;;;;12.50;10.50;;;;;;;10.73;29.29;100335.06;3504550;78;21790;-77
2022/04/18 17:41:49;;;;;;;6.20;4.58;;;;;;;10.56;29.57;100311.06;3516838;78;20951;-76
2022/04/18 17:46:40;;;;;;;10.10;7.92;;;;;;;10.56;29.57;100311.06;3534078;79;20988;-75
2022/04/18 17:51:32;;;;;;;8.98;5.90;;;;;;;10.54;29.90;100319.72;3498343;79;20959;-79
2022/04/18 17:56:23;;;;;;;9.23;6.83;;;;;;;10.47;29.80;100321.38;3489329;78;21058;-79
2022/04/18 18:01:15;;;;;;;8.68;7.60;;;;;;;10.41;30.10;100325.18;3517468;78;21441;-79
2022/04/18 18:06:06;;;;;;;17.23;13.35;;;;;;;10.35;30.38;100331.19;3538123;78;21041;-79
2022/04/18 18:10:59;;;;;;;7.10;6.35;;;;;;;10.29;30.54;100327.20;3527056;79;21038;-79
2022/04/18 18:15:50;;;;;;;3.33;2.42;;;;;;;10.23;30.91;100330.59;3509830;78;20920;-79
2022/04/18 18:20:41;;;;;;;2.70;2.50;;;;;;;10.16;31.51;100341.77;3529383;79;21022;-79
2022/04/18 18:25:33;;;;;;;4.85;1.95;;;;;;;9.97;32.70;100367.05;3489106;78;20979;-79
2022/04/18 18:30:26;;;;;;;3.85;3.05;;;;;;;9.66;33.94;100373.10;3529794;78;21341;-79
2022/04/18 18:35:17;;;;;;;4.53;2.45;;;;;;;9.44;35.17;100382.25;3519116;78;21622;-79
2022/04/18 18:40:10;;;;;;;2.90;2.15;;;;;;;9.19;35.95;100376.65;3505148;77;21063;-78
2022/04/18 18:45:01;;;;;;;4.55;2.22;;;;;;;8.81;37.73;100412.27;3504407;79;20979;-78
2022/04/18 18:52:23;;;;;;;4.42;2.25;;;;;;;8.81;37.73;100412.27;3485490;79;20893;-79
2022/04/18 18:54:48;;;;;;;2.98;1.98;;;;;;;8.27;39.35;100409.42;3496729;78;21900;-78
2022/04/18 18:59:39;;;;;;;2.98;1.55;;;;;;;8.27;39.35;100409.42;3465190;78;20943;-78
2022/04/18 19:04:31;;;;;;;3.70;2.30;;;;;;;8.15;40.34;100411.75;3395538;79;20963;-78
2022/04/18 19:09:22;;;;;;;3.58;1.87;;;;;;;7.86;41.43;100411.97;3485582;78;21803;-79
2022/04/18 19:14:13;;;;;;;3.52;1.80;;;;;;;7.86;41.43;100411.97;3558016;78;21102;-78
2022/04/18 19:29:23;;;;;;;2.40;1.72;;;;;;;7.49;43.13;100412.38;3474957;77;20963;-78
2022/04/18 19:34:17;;;;;;;2.50;1.33;;;;;;;7.36;43.72;100413.79;3472279;78;20997;-78
2022/04/18 19:39:07;;;;;;;2.35;1.70;;;;;;;7.30;44.26;100417.53;3524596;78;21197;-78
2022/04/18 19:43:58;;;;;;;2.22;1.82;;;;;;;7.30;44.59;100415.34;3492511;79;21747;-79
2022/04/18 19:48:50;;;;;;;3.77;2.20;;;;;;;7.24;44.87;100416.96;3500656;77;20979;-79
2022/04/18 19:53:42;;;;;;;2.87;2.00;;;;;;;7.17;45.46;100410.28;3554943;77;20987;-79
2022/04/18 19:58:32;;;;;;;3.75;2.00;;;;;;;7.16;45.80;100411.13;3499083;79;21556;-79
2022/04/18 20:03:27;;;;;;;2.47;2.10;;;;;;;7.06;46.31;100408.70;3517843;78;21137;-79
2022/04/18 20:08:18;;;;;;;2.90;1.62;;;;;;;7.04;46.89;100411.67;3514457;79;21235;-79
2022/04/18 20:13:09;;;;;;;3.52;1.87;;;;;;;7.01;47.64;100402.14;3512677;78;20994;-79
2022/04/18 20:18:15;;;;;;;3.47;1.75;;;;;;;6.95;47.81;100389.46;3463992;79;20947;-79
2022/04/18 20:23:07;;;;;;;2.37;1.50;;;;;;;6.94;48.04;100376.07;3518718;79;20959;-80
2022/04/18 20:27:59;;;;;;;3.35;1.72;;;;;;;6.91;48.29;100376.02;3486509;78;20992;-79
2022/04/18 20:32:50;;;;;;;2.10;1.90;;;;;;;6.93;48.57;100371.75;3468838;77;21143;-79
2022/04/18 20:37:41;;;;;;;3.92;2.00;;;;;;;6.84;48.64;100364.20;3513284;78;20975;-80
2022/04/18 20:42:36;;;;;;;4.62;1.87;;;;;;;6.81;48.74;100357.66;3470687;77;20915;-79
2022/04/18 20:47:27;;;;;;;4.62;2.62;;;;;;;6.81;49.33;100352.48;3478688;79;22204;-79
2022/04/18 20:58:30;;;;;;;5.17;2.10;;;;;;;6.74;49.38;100346.70;3516442;79;20928;-79
2022/04/18 21:02:20;;;;;;;3.00;2.30;;;;;;;6.62;49.77;100361.90;3498221;79;20995;-79
2022/04/18 21:07:13;;;;;;;3.58;2.30;;;;;;;6.55;50.28;100356.11;3470555;79;21056;-78
2022/04/18 21:12:06;;;;;;;2.85;2.40;;;;;;;6.58;50.45;100347.12;3429578;79;20948;-78
2022/04/18 21:16:57;;;;;;;3.60;2.27;;;;;;;6.57;50.69;100342.38;3501499;79;20979;-78
2022/04/18 21:21:50;;;;;;;2.87;1.65;;;;;;;6.53;50.94;100335.78;3493394;79;21306;-78
2022/04/18 21:26:41;;;;;;;2.52;1.62;;;;;;;6.40;51.11;100334.19;3526156;79;21109;-78
2022/04/18 21:31:32;;;;;;;3.40;2.00;;;;;;;6.37;51.33;100331.52;3528712;78;22268;-77
2022/04/18 21:41:35;;;;;;;3.80;2.10;;;;;;;6.23;51.94;100325.09;3524835;79;20968;-77
2022/04/18 21:46:25;;;;;;;6.72;2.20;;;;;;;6.19;52.11;100320.65;3515625;79;21215;-77
2022/04/18 21:51:17;;;;;;;3.22;2.37;;;;;;;6.17;52.30;100314.17;3524478;79;21575;-77
2022/04/18 21:56:08;;;;;;;2.62;1.98;;;;;;;6.15;52.37;100307.20;3484213;79;21608;-77
2022/04/18 22:01:04;;;;;;;3.30;2.20;;;;;;;6.14;52.85;100307.63;3513055;79;21008;-77
2022/04/18 22:05:56;;;;;;;2.30;1.82;;;;;;;6.08;53.09;100301.88;3510946;78;20960;-78
2022/04/18 22:10:50;;;;;;;3.52;2.12;;;;;;;6.05;53.21;100297.05;3486449;78;21647;-77
2022/04/18 22:15:41;;;;;;;2.95;1.90;;;;;;;5.91;53.53;100285.00;3516022;79;20923;-77
2022/04/18 22:25:42;;;;;;;2.75;1.95;;;;;;;5.92;53.81;100276.44;3507811;79;21441;-78
2022/04/18 22:30:33;;;;;;;4.15;2.47;;;;;;;5.86;54.06;100264.21;3525513;79;20919;-77
2022/04/18 22:35:25;;;;;;;3.22;2.47;;;;;;;5.71;54.25;100258.20;3495967;79;22497;-77
2022/04/18 22:40:19;;;;;;;4.08;2.47;;;;;;;5.72;54.58;100254.80;3458492;79;20919;-78
2022/04/18 22:45:11;;;;;;;3.65;2.15;;;;;;;5.71;54.72;100250.47;3498869;80;20927;-78
2022/04/18 22:50:08;;;;;;;4.08;3.12;;;;;;;5.67;54.93;100243.48;3517835;79;20923;-77
2022/04/18 22:54:56;;;;;;;4.58;2.87;;;;;;;5.70;54.95;100240.96;3522494;79;20935;-77
2022/04/18 22:59:47;;;;;;;5.67;2.65;;;;;;;5.74;55.30;100238.05;3489777;79;21168;-78
2022/04/18 23:09:53;;;;;;;3.05;2.37;;;;;;;5.60;55.96;100238.97;3547210;79;20987;-78
2022/04/18 23:14:44;;;;;;;7.33;3.98;;;;;;;5.58;56.51;100224.27;3521972;79;20907;-79
2022/04/18 23:19:35;;;;;;;3.25;2.85;;;;;;;5.48;57.45;100215.39;3515418;79;20962;-79
2022/04/18 23:24:27;;;;;;;2.90;2.27;;;;;;;5.51;57.70;100215.49;3476089;79;21105;-79
2022/04/18 23:29:18;;;;;;;4.17;3.08;;;;;;;5.49;57.81;100211.97;3489609;79;21489;-79
2022/04/18 23:34:09;;;;;;;6.55;2.90;;;;;;;5.42;58.76;100200.63;3445565;77;21025;-79
2022/04/18 23:39:00;;;;;;;3.05;2.62;;;;;;;5.41;59.42;100200.15;3534231;79;21623;-79
2022/04/18 23:43:59;;;;;;;4.45;3.12;;;;;;;5.37;59.57;100200.03;3500480;79;20927;-79
2022/04/18 23:48:44;;;;;;;3.65;3.27;;;;;;;5.37;59.97;100191.02;3506019;79;24053;-79
2022/04/18 23:53:35;;;;;;;5.55;3.52;;;;;;;5.41;60.16;100192.41;3464123;79;21461;-79
2022/04/18 23:58:27;;;;;;;4.03;3.08;;;;;;;5.32;60.62;100183.13;3566080;79;21572;-79
